sensor_id;sensor_type;location;lat;lon;timestamp;P1;durP1;ratioP1;P2;durP2;ratioP2
72611;SDS011;60655;52.182;4.474;2022-12-28T00:00:42;8.93;;;2.95;;
72611;SDS011;60655;52.182;4.474;2022-12-28T00:04:44;8.68;;;3.08;;
72611;SDS011;60655;52.182;4.474;2022-12-28T00:08:47;11.77;;;3.10;;
72611;SDS011;60655;52.182;4.474;2022-12-28T00:12:48;14.60;;;3.10;;
72611;SDS011;60655;52.182;4.474;2022-12-28T00:16:50;11.65;;;2.65;;
72611;SDS011;60655;52.182;4.474;2022-12-28T00:20:58;7.00;;;2.60;;
72611;SDS011;60655;52.182;4.474;2022-12-28T00:23:03;9.15;;;2.78;;
72611;SDS011;60655;52.182;4.474;2022-12-28T00:25:05;12.52;;;3.60;;
72611;SDS011;60655;52.182;4.474;2022-12-28T00:27:06;7.20;;;3.00;;
72611;SDS011;60655;52.182;4.474;2022-12-28T00:31:09;10.55;;;3.67;;
72611;SDS011;60655;52.182;4.474;2022-12-28T00:33:10;13.50;;;3.25;;
72611;SDS011;60655;52.182;4.474;2022-12-28T00:37:12;9.43;;;2.92;;
72611;SDS011;60655;52.182;4.474;2022-12-28T00:41:13;8.35;;;2.90;;
72611;SDS011;60655;52.182;4.474;2022-12-28T00:45:15;7.35;;;2.90;;
72611;SDS011;60655;52.182;4.474;2022-12-28T00:47:17;10.10;;;3.65;;
72611;SDS011;60655;52.182;4.474;2022-12-28T00:51:18;10.15;;;3.75;;
72611;SDS011;60655;52.182;4.474;2022-12-28T00:53:20;11.27;;;4.18;;
72611;SDS011;60655;52.182;4.474;2022-12-28T00:57:21;8.50;;;3.20;;
72611;SDS011;60655;52.182;4.474;2022-12-28T01:01:23;9.00;;;3.40;;
72611;SDS011;60655;52.182;4.474;2022-12-28T01:03:25;9.95;;;3.55;;
72611;SDS011;60655;52.182;4.474;2022-12-28T01:07:26;10.48;;;3.28;;
72611;SDS011;60655;52.182;4.474;2022-12-28T01:13:48;10.70;;;3.85;;
72611;SDS011;60655;52.182;4.474;2022-12-28T01:15:50;13.38;;;4.15;;
72611;SDS011;60655;52.182;4.474;2022-12-28T01:19:52;9.70;;;3.58;;
72611;SDS011;60655;52.182;4.474;2022-12-28T01:23:55;9.98;;;3.40;;
72611;SDS011;60655;52.182;4.474;2022-12-28T01:26:01;8.52;;;3.67;;
72611;SDS011;60655;52.182;4.474;2022-12-28T01:28:02;10.60;;;4.30;;
72611;SDS011;60655;52.182;4.474;2022-12-28T01:30:04;12.85;;;3.92;;
72611;SDS011;60655;52.182;4.474;2022-12-28T01:32:05;13.55;;;4.38;;
72611;SDS011;60655;52.182;4.474;2022-12-28T01:36:12;9.52;;;3.65;;
72611;SDS011;60655;52.182;4.474;2022-12-28T01:38:15;9.75;;;3.58;;
72611;SDS011;60655;52.182;4.474;2022-12-28T01:40:16;10.32;;;4.18;;
72611;SDS011;60655;52.182;4.474;2022-12-28T01:42:18;10.23;;;3.75;;
72611;SDS011;60655;52.182;4.474;2022-12-28T01:46:27;10.77;;;3.85;;
72611;SDS011;60655;52.182;4.474;2022-12-28T01:48:34;10.73;;;3.80;;
72611;SDS011;60655;52.182;4.474;2022-12-28T01:50:40;11.85;;;4.57;;
72611;SDS011;60655;52.182;4.474;2022-12-28T01:54:51;12.00;;;4.18;;
72611;SDS011;60655;52.182;4.474;2022-12-28T01:56:58;9.23;;;3.88;;
72611;SDS011;60655;52.182;4.474;2022-12-28T01:58:59;9.68;;;4.50;;
72611;SDS011;60655;52.182;4.474;2022-12-28T02:01:00;8.25;;;3.97;;
72611;SDS011;60655;52.182;4.474;2022-12-28T02:03:04;11.10;;;3.88;;
72611;SDS011;60655;52.182;4.474;2022-12-28T02:05:08;8.15;;;4.03;;
72611;SDS011;60655;52.182;4.474;2022-12-28T02:07:10;8.63;;;3.58;;
72611;SDS011;60655;52.182;4.474;2022-12-28T02:09:20;11.90;;;4.32;;
72611;SDS011;60655;52.182;4.474;2022-12-28T02:11:29;13.13;;;4.30;;
72611;SDS011;60655;52.182;4.474;2022-12-28T02:13:31;9.15;;;3.35;;
72611;SDS011;60655;52.182;4.474;2022-12-28T02:15:33;9.48;;;3.80;;
72611;SDS011;60655;52.182;4.474;2022-12-28T02:17:34;7.03;;;3.30;;
72611;SDS011;60655;52.182;4.474;2022-12-28T02:19:53;8.30;;;4.07;;
72611;SDS011;60655;52.182;4.474;2022-12-28T02:26:51;8.93;;;4.20;;
72611;SDS011;60655;52.182;4.474;2022-12-28T02:31:24;10.10;;;4.00;;
72611;SDS011;60655;52.182;4.474;2022-12-28T02:33:38;9.27;;;3.47;;
72611;SDS011;60655;52.182;4.474;2022-12-28T02:35:58;9.25;;;4.53;;
72611;SDS011;60655;52.182;4.474;2022-12-28T02:40:48;7.68;;;3.42;;
72611;SDS011;60655;52.182;4.474;2022-12-28T02:42:54;10.13;;;3.90;;
72611;SDS011;60655;52.182;4.474;2022-12-28T02:44:55;10.63;;;4.15;;
72611;SDS011;60655;52.182;4.474;2022-12-28T02:47:15;9.15;;;3.78;;
72611;SDS011;60655;52.182;4.474;2022-12-28T02:49:35;8.85;;;4.07;;
72611;SDS011;60655;52.182;4.474;2022-12-28T02:57:05;8.13;;;3.63;;
72611;SDS011;60655;52.182;4.474;2022-12-28T03:00:02;7.25;;;3.50;;
72611;SDS011;60655;52.182;4.474;2022-12-28T03:02:19;12.80;;;4.22;;
72611;SDS011;60655;52.182;4.474;2022-12-28T03:09:14;12.13;;;4.38;;
72611;SDS011;60655;52.182;4.474;2022-12-28T03:11:25;10.13;;;4.35;;
72611;SDS011;60655;52.182;4.474;2022-12-28T03:15:46;11.05;;;4.07;;
72611;SDS011;60655;52.182;4.474;2022-12-28T03:17:48;9.38;;;4.72;;
72611;SDS011;60655;52.182;4.474;2022-12-28T03:20:08;9.45;;;3.92;;
72611;SDS011;60655;52.182;4.474;2022-12-28T03:22:34;12.18;;;4.05;;
72611;SDS011;60655;52.182;4.474;2022-12-28T03:25:03;8.60;;;3.85;;
72611;SDS011;60655;52.182;4.474;2022-12-28T03:27:27;9.38;;;4.57;;
72611;SDS011;60655;52.182;4.474;2022-12-28T03:30:10;8.82;;;4.00;;
72611;SDS011;60655;52.182;4.474;2022-12-28T03:32:32;11.10;;;3.72;;
72611;SDS011;60655;52.182;4.474;2022-12-28T03:34:33;8.52;;;3.92;;
72611;SDS011;60655;52.182;4.474;2022-12-28T03:39:13;8.60;;;3.95;;
72611;SDS011;60655;52.182;4.474;2022-12-28T03:41:18;9.80;;;4.68;;
72611;SDS011;60655;52.182;4.474;2022-12-28T03:43:35;11.57;;;4.07;;
72611;SDS011;60655;52.182;4.474;2022-12-28T03:48:04;9.10;;;4.20;;
72611;SDS011;60655;52.182;4.474;2022-12-28T03:50:06;9.05;;;4.25;;
72611;SDS011;60655;52.182;4.474;2022-12-28T03:52:08;7.80;;;3.60;;
72611;SDS011;60655;52.182;4.474;2022-12-28T03:54:12;13.23;;;4.38;;
72611;SDS011;60655;52.182;4.474;2022-12-28T03:56:17;10.00;;;4.15;;
72611;SDS011;60655;52.182;4.474;2022-12-28T03:58:23;7.78;;;4.10;;
72611;SDS011;60655;52.182;4.474;2022-12-28T04:00:24;7.93;;;3.80;;
72611;SDS011;60655;52.182;4.474;2022-12-28T04:02:24;9.30;;;4.05;;
72611;SDS011;60655;52.182;4.474;2022-12-28T04:04:25;10.63;;;4.40;;
72611;SDS011;60655;52.182;4.474;2022-12-28T04:06:26;9.63;;;3.95;;
72611;SDS011;60655;52.182;4.474;2022-12-28T04:08:27;10.90;;;4.50;;
72611;SDS011;60655;52.182;4.474;2022-12-28T04:10:28;8.95;;;3.85;;
72611;SDS011;60655;52.182;4.474;2022-12-28T04:12:29;9.00;;;4.13;;
72611;SDS011;60655;52.182;4.474;2022-12-28T04:14:30;7.20;;;3.40;;
72611;SDS011;60655;52.182;4.474;2022-12-28T04:16:31;9.30;;;3.70;;
72611;SDS011;60655;52.182;4.474;2022-12-28T04:18:32;8.00;;;3.08;;
72611;SDS011;60655;52.182;4.474;2022-12-28T04:20:34;8.70;;;4.00;;
72611;SDS011;60655;52.182;4.474;2022-12-28T04:22:35;6.93;;;3.20;;
72611;SDS011;60655;52.182;4.474;2022-12-28T04:26:36;6.55;;;3.35;;
72611;SDS011;60655;52.182;4.474;2022-12-28T04:28:40;8.68;;;3.72;;
72611;SDS011;60655;52.182;4.474;2022-12-28T04:30:43;13.70;;;4.72;;
72611;SDS011;60655;52.182;4.474;2022-12-28T04:32:44;7.63;;;3.60;;
72611;SDS011;60655;52.182;4.474;2022-12-28T04:34:45;8.25;;;3.55;;
72611;SDS011;60655;52.182;4.474;2022-12-28T04:36:46;6.55;;;3.25;;
72611;SDS011;60655;52.182;4.474;2022-12-28T04:38:47;9.32;;;3.75;;
72611;SDS011;60655;52.182;4.474;2022-12-28T04:40:48;7.65;;;3.42;;
72611;SDS011;60655;52.182;4.474;2022-12-28T04:42:49;6.20;;;3.10;;
72611;SDS011;60655;52.182;4.474;2022-12-28T04:44:50;7.93;;;3.75;;
72611;SDS011;60655;52.182;4.474;2022-12-28T04:46:51;11.98;;;3.33;;
72611;SDS011;60655;52.182;4.474;2022-12-28T04:48:52;7.82;;;2.75;;
72611;SDS011;60655;52.182;4.474;2022-12-28T04:50:55;6.88;;;3.17;;
72611;SDS011;60655;52.182;4.474;2022-12-28T04:52:57;6.68;;;3.03;;
72611;SDS011;60655;52.182;4.474;2022-12-28T04:54:58;8.32;;;3.13;;
72611;SDS011;60655;52.182;4.474;2022-12-28T04:56:59;6.20;;;2.92;;
72611;SDS011;60655;52.182;4.474;2022-12-28T04:59:00;7.63;;;2.83;;
72611;SDS011;60655;52.182;4.474;2022-12-28T05:01:04;7.35;;;2.65;;
72611;SDS011;60655;52.182;4.474;2022-12-28T05:03:11;7.47;;;2.70;;
72611;SDS011;60655;52.182;4.474;2022-12-28T05:05:12;6.85;;;2.88;;
72611;SDS011;60655;52.182;4.474;2022-12-28T05:07:13;7.40;;;2.78;;
72611;SDS011;60655;52.182;4.474;2022-12-28T05:09:14;6.05;;;2.67;;
72611;SDS011;60655;52.182;4.474;2022-12-28T05:11:16;6.18;;;2.40;;
72611;SDS011;60655;52.182;4.474;2022-12-28T05:13:22;7.28;;;2.55;;
72611;SDS011;60655;52.182;4.474;2022-12-28T05:15:23;6.43;;;2.20;;
72611;SDS011;60655;52.182;4.474;2022-12-28T05:17:24;6.78;;;2.10;;
72611;SDS011;60655;52.182;4.474;2022-12-28T05:19:25;6.80;;;2.33;;
72611;SDS011;60655;52.182;4.474;2022-12-28T05:21:27;6.72;;;2.40;;
72611;SDS011;60655;52.182;4.474;2022-12-28T05:23:29;5.55;;;2.33;;
72611;SDS011;60655;52.182;4.474;2022-12-28T05:25:31;5.60;;;2.08;;
72611;SDS011;60655;52.182;4.474;2022-12-28T05:27:31;6.82;;;2.22;;
72611;SDS011;60655;52.182;4.474;2022-12-28T05:29:32;7.65;;;2.45;;
72611;SDS011;60655;52.182;4.474;2022-12-28T05:31:33;5.50;;;2.30;;
72611;SDS011;60655;52.182;4.474;2022-12-28T05:33:34;9.13;;;2.35;;
72611;SDS011;60655;52.182;4.474;2022-12-28T05:35:36;6.35;;;2.17;;
72611;SDS011;60655;52.182;4.474;2022-12-28T05:37:37;10.00;;;2.47;;
72611;SDS011;60655;52.182;4.474;2022-12-28T05:39:38;5.68;;;2.35;;
72611;SDS011;60655;52.182;4.474;2022-12-28T05:41:39;5.75;;;1.90;;
72611;SDS011;60655;52.182;4.474;2022-12-28T05:43:40;6.90;;;1.90;;
72611;SDS011;60655;52.182;4.474;2022-12-28T05:45:42;6.35;;;2.00;;
72611;SDS011;60655;52.182;4.474;2022-12-28T05:47:43;4.97;;;1.70;;
72611;SDS011;60655;52.182;4.474;2022-12-28T05:49:43;7.43;;;2.20;;
72611;SDS011;60655;52.182;4.474;2022-12-28T05:51:44;5.68;;;2.00;;
72611;SDS011;60655;52.182;4.474;2022-12-28T05:53:51;6.35;;;2.30;;
72611;SDS011;60655;52.182;4.474;2022-12-28T05:55:52;6.60;;;2.08;;
72611;SDS011;60655;52.182;4.474;2022-12-28T05:58:05;6.55;;;2.00;;
72611;SDS011;60655;52.182;4.474;2022-12-28T06:00:06;8.13;;;2.80;;
72611;SDS011;60655;52.182;4.474;2022-12-28T06:02:07;6.50;;;2.13;;
72611;SDS011;60655;52.182;4.474;2022-12-28T06:04:15;7.82;;;2.67;;
72611;SDS011;60655;52.182;4.474;2022-12-28T06:06:18;7.80;;;2.95;;
72611;SDS011;60655;52.182;4.474;2022-12-28T06:08:19;8.05;;;2.38;;
72611;SDS011;60655;52.182;4.474;2022-12-28T06:10:20;7.03;;;2.38;;
72611;SDS011;60655;52.182;4.474;2022-12-28T06:12:21;6.78;;;2.25;;
72611;SDS011;60655;52.182;4.474;2022-12-28T06:14:22;7.00;;;2.40;;
72611;SDS011;60655;52.182;4.474;2022-12-28T06:16:24;5.68;;;2.40;;
72611;SDS011;60655;52.182;4.474;2022-12-28T06:18:27;5.97;;;2.95;;
72611;SDS011;60655;52.182;4.474;2022-12-28T06:20:28;7.75;;;2.45;;
72611;SDS011;60655;52.182;4.474;2022-12-28T06:22:29;6.72;;;3.05;;
72611;SDS011;60655;52.182;4.474;2022-12-28T06:24:30;4.90;;;2.35;;
72611;SDS011;60655;52.182;4.474;2022-12-28T06:26:32;8.50;;;2.30;;
72611;SDS011;60655;52.182;4.474;2022-12-28T06:28:35;6.07;;;2.22;;
72611;SDS011;60655;52.182;4.474;2022-12-28T06:30:37;7.15;;;2.67;;
72611;SDS011;60655;52.182;4.474;2022-12-28T06:32:38;6.85;;;2.40;;
72611;SDS011;60655;52.182;4.474;2022-12-28T06:34:39;6.38;;;2.78;;
72611;SDS011;60655;52.182;4.474;2022-12-28T06:36:41;6.53;;;2.28;;
72611;SDS011;60655;52.182;4.474;2022-12-28T06:38:44;8.13;;;2.60;;
72611;SDS011;60655;52.182;4.474;2022-12-28T06:40:47;5.63;;;2.40;;
72611;SDS011;60655;52.182;4.474;2022-12-28T06:42:48;6.38;;;2.53;;
72611;SDS011;60655;52.182;4.474;2022-12-28T06:44:49;7.63;;;2.70;;
72611;SDS011;60655;52.182;4.474;2022-12-28T06:46:50;4.47;;;2.17;;
72611;SDS011;60655;52.182;4.474;2022-12-28T06:48:50;7.30;;;2.47;;
72611;SDS011;60655;52.182;4.474;2022-12-28T06:50:55;6.20;;;2.65;;
72611;SDS011;60655;52.182;4.474;2022-12-28T06:53:01;7.25;;;2.63;;
72611;SDS011;60655;52.182;4.474;2022-12-28T06:55:02;6.18;;;2.55;;
72611;SDS011;60655;52.182;4.474;2022-12-28T06:57:03;9.32;;;2.55;;
72611;SDS011;60655;52.182;4.474;2022-12-28T06:59:04;8.10;;;2.30;;
72611;SDS011;60655;52.182;4.474;2022-12-28T07:01:06;4.88;;;2.20;;
72611;SDS011;60655;52.182;4.474;2022-12-28T07:03:09;5.85;;;2.33;;
72611;SDS011;60655;52.182;4.474;2022-12-28T07:05:09;6.18;;;2.47;;
72611;SDS011;60655;52.182;4.474;2022-12-28T07:07:10;9.52;;;3.08;;
72611;SDS011;60655;52.182;4.474;2022-12-28T07:09:12;8.68;;;2.88;;
72611;SDS011;60655;52.182;4.474;2022-12-28T07:11:16;7.82;;;2.78;;
72611;SDS011;60655;52.182;4.474;2022-12-28T07:13:20;9.55;;;2.83;;
72611;SDS011;60655;52.182;4.474;2022-12-28T07:15:21;7.03;;;2.92;;
72611;SDS011;60655;52.182;4.474;2022-12-28T07:17:22;7.72;;;3.55;;
72611;SDS011;60655;52.182;4.474;2022-12-28T07:19:23;6.53;;;2.75;;
72611;SDS011;60655;52.182;4.474;2022-12-28T07:21:25;9.57;;;3.17;;
72611;SDS011;60655;52.182;4.474;2022-12-28T07:23:31;9.48;;;3.30;;
72611;SDS011;60655;52.182;4.474;2022-12-28T07:25:34;8.52;;;2.78;;
72611;SDS011;60655;52.182;4.474;2022-12-28T07:27:35;8.57;;;3.03;;
72611;SDS011;60655;52.182;4.474;2022-12-28T07:29:36;7.15;;;3.03;;
72611;SDS011;60655;52.182;4.474;2022-12-28T07:31:38;8.90;;;3.75;;
72611;SDS011;60655;52.182;4.474;2022-12-28T07:33:40;6.88;;;3.00;;
72611;SDS011;60655;52.182;4.474;2022-12-28T07:35:41;8.00;;;3.60;;
72611;SDS011;60655;52.182;4.474;2022-12-28T07:37:42;8.00;;;3.03;;
72611;SDS011;60655;52.182;4.474;2022-12-28T07:39:43;7.35;;;2.80;;
72611;SDS011;60655;52.182;4.474;2022-12-28T07:41:44;9.13;;;2.95;;
72611;SDS011;60655;52.182;4.474;2022-12-28T07:43:45;8.88;;;2.90;;
72611;SDS011;60655;52.182;4.474;2022-12-28T07:45:46;6.57;;;3.25;;
72611;SDS011;60655;52.182;4.474;2022-12-28T07:47:47;10.48;;;3.58;;
72611;SDS011;60655;52.182;4.474;2022-12-28T07:49:48;7.40;;;3.13;;
72611;SDS011;60655;52.182;4.474;2022-12-28T07:51:49;7.72;;;2.85;;
72611;SDS011;60655;52.182;4.474;2022-12-28T07:53:50;8.30;;;3.20;;
72611;SDS011;60655;52.182;4.474;2022-12-28T07:55:53;9.90;;;3.05;;
72611;SDS011;60655;52.182;4.474;2022-12-28T07:57:55;9.20;;;3.00;;
72611;SDS011;60655;52.182;4.474;2022-12-28T07:59:56;7.82;;;3.08;;
72611;SDS011;60655;52.182;4.474;2022-12-28T08:01:57;7.43;;;2.63;;
72611;SDS011;60655;52.182;4.474;2022-12-28T08:04:00;8.45;;;2.72;;
72611;SDS011;60655;52.182;4.474;2022-12-28T08:06:06;8.65;;;2.85;;
72611;SDS011;60655;52.182;4.474;2022-12-28T08:08:09;8.98;;;3.05;;
72611;SDS011;60655;52.182;4.474;2022-12-28T08:10:10;9.82;;;3.50;;
72611;SDS011;60655;52.182;4.474;2022-12-28T08:12:11;10.52;;;2.92;;
72611;SDS011;60655;52.182;4.474;2022-12-28T08:14:12;9.18;;;2.80;;
72611;SDS011;60655;52.182;4.474;2022-12-28T08:16:14;6.75;;;2.60;;
72611;SDS011;60655;52.182;4.474;2022-12-28T08:18:18;10.18;;;2.95;;
72611;SDS011;60655;52.182;4.474;2022-12-28T08:20:19;9.93;;;3.00;;
72611;SDS011;60655;52.182;4.474;2022-12-28T08:22:20;7.97;;;2.75;;
72611;SDS011;60655;52.182;4.474;2022-12-28T08:24:21;9.90;;;3.15;;
72611;SDS011;60655;52.182;4.474;2022-12-28T08:26:33;7.90;;;2.92;;
72611;SDS011;60655;52.182;4.474;2022-12-28T08:28:36;8.32;;;3.13;;
72611;SDS011;60655;52.182;4.474;2022-12-28T08:30:38;7.55;;;3.17;;
72611;SDS011;60655;52.182;4.474;2022-12-28T08:32:38;6.45;;;3.25;;
72611;SDS011;60655;52.182;4.474;2022-12-28T08:34:39;14.27;;;3.95;;
72611;SDS011;60655;52.182;4.474;2022-12-28T08:36:40;8.07;;;3.20;;
72611;SDS011;60655;52.182;4.474;2022-12-28T08:38:42;8.52;;;3.13;;
72611;SDS011;60655;52.182;4.474;2022-12-28T08:40:46;6.82;;;3.20;;
72611;SDS011;60655;52.182;4.474;2022-12-28T08:42:57;8.57;;;3.33;;
72611;SDS011;60655;52.182;4.474;2022-12-28T08:44:58;6.97;;;3.20;;
72611;SDS011;60655;52.182;4.474;2022-12-28T08:46:59;8.27;;;3.60;;
72611;SDS011;60655;52.182;4.474;2022-12-28T08:49:00;10.10;;;3.10;;
72611;SDS011;60655;52.182;4.474;2022-12-28T08:51:04;6.63;;;3.10;;
72611;SDS011;60655;52.182;4.474;2022-12-28T08:53:07;9.23;;;3.20;;
72611;SDS011;60655;52.182;4.474;2022-12-28T08:55:07;11.50;;;3.95;;
72611;SDS011;60655;52.182;4.474;2022-12-28T08:57:09;6.78;;;3.20;;
72611;SDS011;60655;52.182;4.474;2022-12-28T08:59:14;8.68;;;3.47;;
72611;SDS011;60655;52.182;4.474;2022-12-28T09:01:23;6.57;;;3.33;;
72611;SDS011;60655;52.182;4.474;2022-12-28T09:03:36;6.95;;;3.20;;
72611;SDS011;60655;52.182;4.474;2022-12-28T09:05:38;13.10;;;6.20;;
72611;SDS011;60655;52.182;4.474;2022-12-28T09:07:39;7.38;;;3.30;;
72611;SDS011;60655;52.182;4.474;2022-12-28T09:09:40;6.78;;;2.60;;
72611;SDS011;60655;52.182;4.474;2022-12-28T09:11:41;6.70;;;2.55;;
72611;SDS011;60655;52.182;4.474;2022-12-28T09:13:43;7.57;;;2.85;;
72611;SDS011;60655;52.182;4.474;2022-12-28T09:15:44;5.57;;;2.47;;
72611;SDS011;60655;52.182;4.474;2022-12-28T09:17:44;6.15;;;2.85;;
72611;SDS011;60655;52.182;4.474;2022-12-28T09:19:45;5.78;;;2.22;;
72611;SDS011;60655;52.182;4.474;2022-12-28T09:21:46;6.20;;;2.60;;
72611;SDS011;60655;52.182;4.474;2022-12-28T09:23:48;6.18;;;2.20;;
72611;SDS011;60655;52.182;4.474;2022-12-28T09:25:50;4.90;;;2.40;;
72611;SDS011;60655;52.182;4.474;2022-12-28T09:27:51;9.80;;;2.40;;
72611;SDS011;60655;52.182;4.474;2022-12-28T09:29:53;6.03;;;2.30;;
72611;SDS011;60655;52.182;4.474;2022-12-28T09:31:54;6.30;;;2.42;;
72611;SDS011;60655;52.182;4.474;2022-12-28T09:33:57;6.05;;;2.05;;
72611;SDS011;60655;52.182;4.474;2022-12-28T09:36:00;4.50;;;1.88;;
72611;SDS011;60655;52.182;4.474;2022-12-28T09:38:01;5.22;;;2.20;;
72611;SDS011;60655;52.182;4.474;2022-12-28T09:40:02;6.43;;;2.05;;
72611;SDS011;60655;52.182;4.474;2022-12-28T09:42:19;6.40;;;2.10;;
72611;SDS011;60655;52.182;4.474;2022-12-28T09:46:55;7.68;;;1.90;;
72611;SDS011;60655;52.182;4.474;2022-12-28T09:49:00;5.30;;;2.10;;
72611;SDS011;60655;52.182;4.474;2022-12-28T09:51:04;5.38;;;1.88;;
72611;SDS011;60655;52.182;4.474;2022-12-28T09:55:15;6.15;;;1.80;;
72611;SDS011;60655;52.182;4.474;2022-12-28T09:57:19;6.93;;;2.15;;
72611;SDS011;60655;52.182;4.474;2022-12-28T09:59:23;6.57;;;2.40;;
72611;SDS011;60655;52.182;4.474;2022-12-28T10:01:30;6.18;;;2.58;;
72611;SDS011;60655;52.182;4.474;2022-12-28T10:03:38;8.38;;;2.72;;
72611;SDS011;60655;52.182;4.474;2022-12-28T10:05:41;7.05;;;2.78;;
72611;SDS011;60655;52.182;4.474;2022-12-28T10:07:42;7.00;;;2.30;;
72611;SDS011;60655;52.182;4.474;2022-12-28T10:09:43;6.20;;;2.55;;
72611;SDS011;60655;52.182;4.474;2022-12-28T10:11:46;7.15;;;2.05;;
72611;SDS011;60655;52.182;4.474;2022-12-28T10:13:48;5.40;;;2.38;;
72611;SDS011;60655;52.182;4.474;2022-12-28T10:15:57;6.65;;;2.05;;
72611;SDS011;60655;52.182;4.474;2022-12-28T10:17:58;6.03;;;1.90;;
72611;SDS011;60655;52.182;4.474;2022-12-28T10:19:59;6.68;;;2.00;;
72611;SDS011;60655;52.182;4.474;2022-12-28T10:22:00;4.82;;;1.90;;
72611;SDS011;60655;52.182;4.474;2022-12-28T10:24:04;8.88;;;2.20;;
72611;SDS011;60655;52.182;4.474;2022-12-28T10:26:08;8.82;;;2.20;;
72611;SDS011;60655;52.182;4.474;2022-12-28T10:28:15;7.18;;;2.03;;
72611;SDS011;60655;52.182;4.474;2022-12-28T10:30:24;7.70;;;2.53;;
72611;SDS011;60655;52.182;4.474;2022-12-28T10:32:26;6.35;;;2.45;;
72611;SDS011;60655;52.182;4.474;2022-12-28T10:34:55;8.23;;;2.60;;
72611;SDS011;60655;52.182;4.474;2022-12-28T10:37:11;8.63;;;2.25;;
72611;SDS011;60655;52.182;4.474;2022-12-28T10:39:24;6.70;;;2.25;;
72611;SDS011;60655;52.182;4.474;2022-12-28T10:41:32;6.60;;;2.17;;
72611;SDS011;60655;52.182;4.474;2022-12-28T10:43:37;7.35;;;2.15;;
72611;SDS011;60655;52.182;4.474;2022-12-28T10:45:44;4.05;;;2.03;;
72611;SDS011;60655;52.182;4.474;2022-12-28T10:47:51;7.97;;;2.55;;
72611;SDS011;60655;52.182;4.474;2022-12-28T10:49:54;4.95;;;2.25;;
72611;SDS011;60655;52.182;4.474;2022-12-28T10:51:59;10.50;;;2.67;;
72611;SDS011;60655;52.182;4.474;2022-12-28T10:54:02;6.15;;;2.17;;
72611;SDS011;60655;52.182;4.474;2022-12-28T10:56:31;5.57;;;2.20;;
72611;SDS011;60655;52.182;4.474;2022-12-28T10:58:33;5.60;;;2.30;;
72611;SDS011;60655;52.182;4.474;2022-12-28T11:00:34;5.00;;;2.13;;
72611;SDS011;60655;52.182;4.474;2022-12-28T11:02:35;4.72;;;2.30;;
72611;SDS011;60655;52.182;4.474;2022-12-28T11:04:36;5.78;;;2.53;;
72611;SDS011;60655;52.182;4.474;2022-12-28T11:06:53;5.22;;;2.03;;
72611;SDS011;60655;52.182;4.474;2022-12-28T11:09:13;7.75;;;2.30;;
72611;SDS011;60655;52.182;4.474;2022-12-28T11:11:20;4.32;;;2.08;;
72611;SDS011;60655;52.182;4.474;2022-12-28T11:13:23;7.20;;;2.33;;
72611;SDS011;60655;52.182;4.474;2022-12-28T11:15:27;8.00;;;2.42;;
72611;SDS011;60655;52.182;4.474;2022-12-28T11:17:32;4.95;;;1.90;;
72611;SDS011;60655;52.182;4.474;2022-12-28T11:19:36;5.50;;;2.00;;
72611;SDS011;60655;52.182;4.474;2022-12-28T11:21:37;6.30;;;2.40;;
72611;SDS011;60655;52.182;4.474;2022-12-28T11:23:38;6.45;;;2.33;;
72611;SDS011;60655;52.182;4.474;2022-12-28T11:25:39;5.80;;;2.13;;
72611;SDS011;60655;52.182;4.474;2022-12-28T11:27:40;5.07;;;2.33;;
72611;SDS011;60655;52.182;4.474;2022-12-28T11:29:43;6.07;;;2.33;;
72611;SDS011;60655;52.182;4.474;2022-12-28T11:31:47;8.50;;;2.72;;
72611;SDS011;60655;52.182;4.474;2022-12-28T11:34:03;4.88;;;1.90;;
72611;SDS011;60655;52.182;4.474;2022-12-28T11:36:19;7.85;;;2.50;;
72611;SDS011;60655;52.182;4.474;2022-12-28T11:40:56;6.40;;;2.58;;
72611;SDS011;60655;52.182;4.474;2022-12-28T11:42:58;6.75;;;2.53;;
72611;SDS011;60655;52.182;4.474;2022-12-28T11:45:00;10.25;;;2.30;;
72611;SDS011;60655;52.182;4.474;2022-12-28T11:49:23;6.97;;;2.75;;
72611;SDS011;60655;52.182;4.474;2022-12-28T11:51:32;8.65;;;2.40;;
72611;SDS011;60655;52.182;4.474;2022-12-28T12:00:47;6.97;;;1.98;;
72611;SDS011;60655;52.182;4.474;2022-12-28T12:02:50;6.15;;;1.67;;
72611;SDS011;60655;52.182;4.474;2022-12-28T12:05:30;6.47;;;1.80;;
72611;SDS011;60655;52.182;4.474;2022-12-28T12:07:44;5.60;;;2.00;;
72611;SDS011;60655;52.182;4.474;2022-12-28T12:09:47;4.47;;;1.65;;
72611;SDS011;60655;52.182;4.474;2022-12-28T12:14:13;6.90;;;2.15;;
72611;SDS011;60655;52.182;4.474;2022-12-28T12:16:44;10.07;;;2.10;;
72611;SDS011;60655;52.182;4.474;2022-12-28T12:18:51;7.30;;;2.25;;
72611;SDS011;60655;52.182;4.474;2022-12-28T12:20:58;7.97;;;2.28;;
72611;SDS011;60655;52.182;4.474;2022-12-28T12:23:07;11.27;;;3.13;;
72611;SDS011;60655;52.182;4.474;2022-12-28T12:27:53;7.35;;;2.78;;
72611;SDS011;60655;52.182;4.474;2022-12-28T12:30:17;8.05;;;2.30;;
72611;SDS011;60655;52.182;4.474;2022-12-28T12:32:21;10.55;;;2.67;;
72611;SDS011;60655;52.182;4.474;2022-12-28T12:34:29;9.57;;;2.78;;
72611;SDS011;60655;52.182;4.474;2022-12-28T12:37:11;9.57;;;2.38;;
72611;SDS011;60655;52.182;4.474;2022-12-28T12:39:32;12.98;;;3.10;;
72611;SDS011;60655;52.182;4.474;2022-12-28T12:41:57;6.72;;;2.42;;
72611;SDS011;60655;52.182;4.474;2022-12-28T12:44:24;7.55;;;2.60;;
72611;SDS011;60655;52.182;4.474;2022-12-28T12:46:53;7.35;;;2.40;;
72611;SDS011;60655;52.182;4.474;2022-12-28T12:55:49;7.53;;;2.45;;
72611;SDS011;60655;52.182;4.474;2022-12-28T12:58:25;8.40;;;2.08;;
72611;SDS011;60655;52.182;4.474;2022-12-28T13:00:45;8.23;;;2.00;;
72611;SDS011;60655;52.182;4.474;2022-12-28T13:05:36;12.25;;;2.42;;
72611;SDS011;60655;52.182;4.474;2022-12-28T13:07:40;6.05;;;2.03;;
72611;SDS011;60655;52.182;4.474;2022-12-28T13:09:41;6.95;;;2.05;;
72611;SDS011;60655;52.182;4.474;2022-12-28T13:11:43;8.05;;;2.35;;
72611;SDS011;60655;52.182;4.474;2022-12-28T13:13:46;11.02;;;2.08;;
72611;SDS011;60655;52.182;4.474;2022-12-28T13:15:49;12.80;;;3.03;;
72611;SDS011;60655;52.182;4.474;2022-12-28T13:18:01;12.38;;;2.20;;
72611;SDS011;60655;52.182;4.474;2022-12-28T13:20:16;8.20;;;2.40;;
72611;SDS011;60655;52.182;4.474;2022-12-28T13:24:33;10.15;;;2.35;;
72611;SDS011;60655;52.182;4.474;2022-12-28T13:26:35;12.38;;;1.98;;
72611;SDS011;60655;52.182;4.474;2022-12-28T13:31:18;8.48;;;2.20;;
72611;SDS011;60655;52.182;4.474;2022-12-28T13:33:21;10.32;;;2.45;;
72611;SDS011;60655;52.182;4.474;2022-12-28T13:35:32;14.48;;;2.40;;
72611;SDS011;60655;52.182;4.474;2022-12-28T13:37:33;5.47;;;1.83;;
72611;SDS011;60655;52.182;4.474;2022-12-28T13:39:34;7.80;;;2.38;;
72611;SDS011;60655;52.182;4.474;2022-12-28T13:41:35;8.70;;;2.10;;
72611;SDS011;60655;52.182;4.474;2022-12-28T13:45:55;6.28;;;1.85;;
72611;SDS011;60655;52.182;4.474;2022-12-28T13:48:01;10.93;;;2.55;;
72611;SDS011;60655;52.182;4.474;2022-12-28T13:50:14;11.32;;;2.80;;
72611;SDS011;60655;52.182;4.474;2022-12-28T13:52:39;10.45;;;2.42;;
72611;SDS011;60655;52.182;4.474;2022-12-28T13:55:05;8.93;;;2.40;;
72611;SDS011;60655;52.182;4.474;2022-12-28T13:57:10;8.07;;;1.95;;
72611;SDS011;60655;52.182;4.474;2022-12-28T13:59:14;10.85;;;2.10;;
72611;SDS011;60655;52.182;4.474;2022-12-28T14:01:19;9.70;;;1.70;;
72611;SDS011;60655;52.182;4.474;2022-12-28T14:03:23;9.73;;;2.08;;
72611;SDS011;60655;52.182;4.474;2022-12-28T14:05:26;10.07;;;2.00;;
72611;SDS011;60655;52.182;4.474;2022-12-28T14:07:30;7.18;;;1.88;;
72611;SDS011;60655;52.182;4.474;2022-12-28T14:09:35;11.07;;;1.88;;
72611;SDS011;60655;52.182;4.474;2022-12-28T14:11:36;9.63;;;1.77;;
72611;SDS011;60655;52.182;4.474;2022-12-28T14:13:39;7.03;;;1.80;;
72611;SDS011;60655;52.182;4.474;2022-12-28T14:15:41;8.15;;;2.00;;
72611;SDS011;60655;52.182;4.474;2022-12-28T14:17:43;8.65;;;2.03;;
72611;SDS011;60655;52.182;4.474;2022-12-28T14:19:46;10.73;;;2.72;;